This is the latest recevied weather packets stored in our database for station/object 9M4GEK-3. If no packets are shown the sender has not sent any weather packets the latest 1 day(s).
| Time | Temp. | Humidity | Pressure | Rain* | Wind** | Luminosity | Snow |
|---|---|---|---|---|---|---|---|
| 1778081528 | 27.78° C | 74% | 1008.6 hPa | - | - | - | - |
| 1778081415 | 27.78° C | 74% | 1008.6 hPa | - | - | - | - |
| 1778078714 | 27.22° C | 74% | 1008.3 hPa | - | - | - | - |
| 1778075113 | 27.78° C | 73% | 1007.4 hPa | - | - | - | - |
| 1778071865 | 27.78° C | 71% | 1005.8 hPa | - | - | - | - |
| 1778071514 | 27.22° C | 73% | 1006.2 hPa | - | - | - | - |
| 1778071068 | 27.78° C | 70% | 1005.8 hPa | - | - | - | - |
| 1778070614 | 27.78° C | 71% | 1005.8 hPa | - | - | - | - |
| 1778070574 | 28.33° C | 70% | 1005.6 hPa | - | - | - | - |
| 1778068652 | 28.33° C | 68% | 1005.7 hPa | - | - | - | - |
| 1778067913 | 28.33° C | 70% | 1005.6 hPa | - | - | - | - |
| 1778067013 | 28.33° C | 69% | 1005.6 hPa | - | - | - | - |
| 1778066113 | 28.33° C | 68% | 1005.7 hPa | - | - | - | - |
| 1778064312 | 28.89° C | 67% | 1005.4 hPa | - | - | - | - |
| 1778063411 | 29.44° C | 66% | 1005.1 hPa | - | - | - | - |
| 1778062762 | 28.89° C | 67% | 1005 hPa | - | - | - | - |
| 1778062516 | 29.44° C | 66% | 1004.9 hPa | - | - | - | - |
| 1778061611 | 28.89° C | 67% | 1005 hPa | - | - | - | - |
| 1778061070 | 28.33° C | 69% | 1005 hPa | - | - | - | - |
| 1778060711 | 28.33° C | 69% | 1005 hPa | - | - | - | - |
| 1778058911 | 28.33° C | 71% | 1005.2 hPa | - | - | - | - |
| 1778058051 | 27.22° C | 73% | 1005.2 hPa | - | - | - | - |
| 1778057110 | 27.78° C | 73% | 1004.8 hPa | - | - | - | - |
| 1778056210 | 28.33° C | 71% | 1005.1 hPa | - | - | - | - |
| 1778055309 | 29.44° C | 65% | 1005 hPa | - | - | - | - |
* Rain since midnight (hover to see other rain measurements)
** Current wind speed in m/s (hover to see current wind gust speed)